Time;durP1;ratioP1;P1;durP2;ratioP2;P2;SDS_P1;SDS_P2;PMS_P1;PMS_P2;Temp;Humidity;BMP_temperature;BMP_pressure;BME280_temperature;BME280_humidity;BME280_pressure;Samples;Min_cycle;Max_cycle;Signal;HPM_P1;HPM_P2
2021/05/18 00:06:55;;;;;;;8.03;7.33;;;;;;;12.16;100.00;99196.19;20864073;28;20231;-67
2021/05/18 00:16:57;;;;;;;7.77;7.07;;;;;;;12.25;100.00;99198.03;20895815;28;20234;-66
2021/05/18 00:27:02;;;;;;;8.10;6.70;;;;;;;12.36;100.00;99201.56;20874628;28;20289;-67
2021/05/18 00:37:03;;;;;;;6.40;5.77;;;;;;;12.35;100.00;99206.09;20893263;28;20270;-68
2021/05/18 00:47:03;;;;;;;6.80;6.27;;;;;;;12.20;100.00;99192.25;20878389;28;20215;-68
2021/05/18 01:07:23;;;;;;;8.17;7.37;;;;;;;11.87;100.00;99173.84;20871184;28;20262;-67
2021/05/18 01:17:24;;;;;;;7.23;6.60;;;;;;;11.90;100.00;99174.41;20878632;28;20222;-67
2021/05/18 01:27:24;;;;;;;7.53;6.73;;;;;;;12.05;100.00;99176.72;20888897;28;20897;-69
2021/05/18 01:37:24;;;;;;;6.50;6.00;;;;;;;12.20;100.00;99170.00;20870445;28;20230;-69
2021/05/18 01:47:25;;;;;;;5.73;5.33;;;;;;;12.31;100.00;99185.13;20887093;28;20681;-66
2021/05/18 01:57:27;;;;;;;7.18;6.43;;;;;;;12.37;100.00;99184.53;20891271;28;20692;-66
2021/05/18 02:07:31;;;;;;;5.77;5.37;;;;;;;12.46;100.00;99197.94;20896682;28;20234;-66
2021/05/18 02:27:31;;;;;;;6.53;6.13;;;;;;;12.69;100.00;99192.34;20890581;28;20215;-66
2021/05/18 02:37:32;;;;;;;7.00;6.40;;;;;;;12.63;100.00;99201.78;20880581;28;20393;-66
2021/05/18 02:57:52;;;;;;;6.63;5.93;;;;;;;12.71;100.00;99195.72;20883854;28;20628;-66
2021/05/18 03:07:54;;;;;;;6.10;5.60;;;;;;;12.72;100.00;99210.78;20862790;28;20716;-67
2021/05/18 03:17:56;;;;;;;5.30;4.90;;;;;;;12.91;100.00;99209.00;20882981;28;20228;-67
2021/05/18 03:27:57;;;;;;;5.80;5.30;;;;;;;13.21;100.00;99210.69;20862031;28;20232;-67
2021/05/18 03:38:00;;;;;;;6.70;6.10;;;;;;;13.48;100.00;99217.16;20880537;28;20606;-66
2021/05/18 04:19:03;;;;;;;7.53;6.97;;;;;;;14.00;100.00;99199.66;20883728;28;20705;-66
2021/05/18 05:09:47;;;;;;;6.47;5.97;;;;;;;15.36;94.17;99257.72;20877188;28;20261;-67
2021/05/18 05:19:48;;;;;;;7.27;5.90;;;;;;;15.40;93.88;99264.47;20869965;28;20262;-65
2021/05/18 05:29:48;;;;;;;6.73;6.13;;;;;;;15.93;90.43;99271.66;20965100;28;20226;-61
2021/05/18 05:39:48;;;;;;;7.43;6.87;;;;;;;16.29;86.46;99271.53;20958851;28;20478;-65
2021/05/18 05:49:49;;;;;;;7.20;6.70;;;;;;;16.18;86.39;99270.75;20962704;28;20642;-58
2021/05/18 05:59:50;;;;;;;7.60;7.00;;;;;;;15.95;86.32;99290.28;20963548;28;20230;-60
2021/05/18 06:09:55;;;;;;;8.17;7.47;;;;;;;15.54;88.24;99292.66;20953580;28;20242;-59
2021/05/18 06:50:36;;;;;;;9.37;8.47;;;;;;;15.40;88.46;99312.88;20946199;28;20687;-59
2021/05/18 07:00:37;;;;;;;8.90;8.20;;;;;;;15.52;90.07;99309.94;20966516;28;20233;-63
2021/05/18 07:10:38;;;;;;;8.97;8.17;;;;;;;15.58;88.55;99320.13;20950663;28;20231;-66
2021/05/18 07:20:39;;;;;;;7.83;7.23;;;;;;;15.75;88.64;99327.31;20949318;28;20698;-59
2021/05/18 07:30:39;;;;;;;8.60;7.90;;;;;;;15.80;88.21;99346.53;20955654;28;20225;-60
2021/05/18 07:40:40;;;;;;;8.70;7.90;;;;;;;16.00;87.59;99341.81;20957623;28;20679;-59
2021/05/18 08:01:15;;;;;;;8.13;7.37;;;;;;;15.90;86.79;99344.59;20960128;28;20246;-59
2021/05/18 08:11:03;;;;;;;6.40;5.90;;;;;;;16.00;86.17;99348.03;20978409;28;21110;-60
2021/05/18 09:47:22;;;;;;;5.50;5.00;;;;;;;16.08;88.13;99393.00;20968293;28;20226;-63
2021/05/18 10:16:43;;;;;;;6.23;5.63;;;;;;;16.05;88.14;99394.19;20949256;28;20241;-66
2021/05/18 10:36:40;;;;;;;6.80;6.30;;;;;;;16.63;86.50;99401.66;20947344;28;20222;-64
2021/05/18 10:46:52;;;;;;;7.43;6.73;;;;;;;17.17;82.67;99402.25;20967593;28;20235;-59
2021/05/18 10:56:53;;;;;;;6.60;6.10;;;;;;;17.28;82.85;99404.66;20947734;28;20634;-63
2021/05/18 11:06:59;;;;;;;7.38;6.78;;;;;;;17.24;82.54;99398.75;20953603;28;20276;-67
2021/05/18 11:17:29;;;;;;;8.37;7.77;;;;;;;17.12;81.36;99397.38;20952015;28;20222;-60
2021/05/18 11:27:30;;;;;;;8.00;7.20;;;;;;;17.30;82.33;99381.06;20948058;28;20245;-72
2021/05/18 11:37:30;;;;;;;8.80;8.00;;;;;;;17.23;82.09;99412.41;20957013;28;20222;-60
2021/05/18 11:47:31;;;;;;;9.02;8.20;;;;;;;17.34;82.01;99409.41;20951946;28;20989;-61
2021/05/18 11:57:36;;;;;;;7.37;6.77;;;;;;;17.09;82.71;99408.47;20964186;28;20220;-60
2021/05/18 12:07:36;;;;;;;7.03;6.53;;;;;;;17.24;81.60;99422.19;20943678;28;20226;-60
2021/05/18 12:17:37;;;;;;;7.23;6.60;;;;;;;17.56;79.77;99424.13;20963516;28;20214;-64
2021/05/18 12:27:46;;;;;;;6.87;5.97;;;;;;;17.72;77.11;99428.75;20946647;28;20250;-61
2021/05/18 12:37:52;;;;;;;5.90;5.33;;;;;;;17.94;75.45;99428.09;20959617;28;20237;-59
2021/05/18 12:48:00;;;;;;;5.30;4.87;;;;;;;18.35;75.41;99447.88;20959342;28;20337;-62
2021/05/18 12:58:03;;;;;;;6.53;6.00;;;;;;;18.29;73.99;99446.66;20942432;28;20223;-59
2021/05/18 13:08:21;;;;;;;8.70;7.80;;;;;;;17.76;75.09;99459.75;20872807;28;20310;-62
2021/05/18 13:18:21;;;;;;;8.10;7.40;;;;;;;17.40;77.03;99483.41;20877024;28;20581;-62
2021/05/18 13:28:22;;;;;;;6.60;6.10;;;;;;;17.36;77.79;99455.94;20872646;28;20231;-63
2021/05/18 13:38:22;;;;;;;6.00;5.60;;;;;;;17.12;79.76;99470.16;20859371;28;20223;-61
2021/05/18 13:48:24;;;;;;;5.83;5.33;;;;;;;16.88;80.33;99487.03;20871849;28;20233;-66
2021/05/18 13:58:26;;;;;;;5.53;5.00;;;;;;;16.95;80.91;99478.28;20868674;28;20296;-62
2021/05/18 14:18:33;;;;;;;4.23;3.77;;;;;;;16.35;81.85;99486.25;20852958;28;20219;-64
2021/05/18 14:28:35;;;;;;;4.80;4.20;;;;;;;15.94;83.90;99483.19;20883045;28;20223;-63
2021/05/18 14:38:37;;;;;;;4.10;3.70;;;;;;;16.11;83.97;99484.19;20873294;28;20207;-61
2021/05/18 14:58:56;;;;;;;3.57;3.27;;;;;;;15.98;85.42;99489.13;20868398;28;20219;-60
2021/05/18 15:08:57;;;;;;;3.27;3.07;;;;;;;15.79;85.26;99500.88;20868376;28;20980;-62
2021/05/18 15:19:04;;;;;;;3.57;2.77;;;;;;;15.56;85.62;99495.06;20855491;28;20233;-73
2021/05/18 15:29:05;;;;;;;3.40;2.90;;;;;;;15.35;86.86;99479.13;20850541;28;20242;-62
2021/05/18 15:39:06;;;;;;;3.27;2.97;;;;;;;15.12;88.33;99481.38;20850035;28;20756;-63
2021/05/18 15:49:07;;;;;;;3.43;3.10;;;;;;;14.97;89.03;99480.16;20870174;28;20511;-60
2021/05/18 15:59:09;;;;;;;3.43;3.20;;;;;;;14.85;90.48;99478.66;20851883;28;20226;-61
2021/05/18 16:09:13;;;;;;;4.03;3.63;;;;;;;14.77;91.07;99483.91;20888248;28;20233;-65
2021/05/18 16:19:14;;;;;;;3.67;3.37;;;;;;;14.78;91.76;99481.06;20865175;28;20230;-60
2021/05/18 16:29:14;;;;;;;3.60;3.30;;;;;;;14.71;91.60;99506.84;20888829;28;20229;-63
2021/05/18 16:39:15;;;;;;;3.40;3.10;;;;;;;14.66;91.70;99519.84;20871663;28;20231;-62
2021/05/18 16:49:16;;;;;;;3.50;3.30;;;;;;;14.56;91.82;99527.06;20875163;28;20225;-60
2021/05/18 16:59:17;;;;;;;3.90;3.60;;;;;;;14.47;92.71;99548.56;20868576;28;20712;-60
2021/05/18 17:09:17;;;;;;;4.10;3.70;;;;;;;14.38;93.04;99560.94;20850403;28;20325;-64
2021/05/18 17:19:18;;;;;;;3.80;3.50;;;;;;;14.21;93.07;99565.19;20907421;28;20789;-58
2021/05/18 17:29:21;;;;;;;4.00;3.70;;;;;;;14.10;93.25;99567.16;20870564;28;20230;-62
2021/05/18 17:39:24;;;;;;;4.37;3.67;;;;;;;14.02;94.33;99571.34;20867314;28;20222;-68
2021/05/18 17:49:24;;;;;;;3.90;3.27;;;;;;;13.90;94.59;99572.47;20871107;28;20224;-61
2021/05/18 17:59:25;;;;;;;3.33;3.07;;;;;;;13.86;95.11;99565.69;20892858;28;20613;-60
2021/05/18 18:09:26;;;;;;;4.30;3.90;;;;;;;13.76;95.91;99580.06;20837827;28;20464;-67
2021/05/18 18:19:27;;;;;;;3.60;3.30;;;;;;;13.50;97.74;99577.88;20865141;28;20241;-65
2021/05/18 18:29:27;;;;;;;4.37;3.67;;;;;;;13.42;99.22;99595.56;20840529;28;20235;-72
2021/05/18 18:39:29;;;;;;;4.00;3.60;;;;;;;13.33;100.00;99608.81;20854922;28;20295;-62
2021/05/18 18:49:36;;;;;;;4.43;4.03;;;;;;;13.14;100.00;99621.22;20845261;28;20224;-61
2021/05/18 18:59:37;;;;;;;4.10;3.70;;;;;;;12.74;100.00;99594.31;20836319;28;20240;-60
2021/05/18 19:10:12;;;;;;;4.30;3.87;;;;;;;12.86;100.00;99633.44;20861747;28;20333;-59
2021/05/18 19:20:15;;;;;;;3.93;3.63;;;;;;;12.78;100.00;99644.81;20883270;28;20220;-62
2021/05/18 19:30:16;;;;;;;4.57;4.17;;;;;;;12.78;100.00;99646.63;20862162;28;20651;-69
2021/05/18 19:50:36;;;;;;;4.87;4.37;;;;;;;12.72;100.00;99647.13;20885137;28;21052;-68
2021/05/18 20:31:05;;;;;;;6.27;5.77;;;;;;;12.67;100.00;99657.38;20896170;28;20226;-60
2021/05/18 20:51:01;;;;;;;7.00;6.40;;;;;;;12.74;100.00;99677.31;20956905;27;21270;-63
2021/05/18 21:01:02;;;;;;;6.57;6.07;;;;;;;12.71;100.00;99661.50;21022515;27;20218;-61
2021/05/18 21:21:15;;;;;;;6.30;5.70;;;;;;;12.66;100.00;99685.97;20983550;27;20890;-61
2021/05/18 21:31:15;;;;;;;6.57;6.00;;;;;;;12.57;100.00;99676.88;20961711;28;20257;-60
2021/05/18 21:41:16;;;;;;;6.80;6.30;;;;;;;12.53;100.00;99694.16;20962324;28;20223;-70
2021/05/18 21:51:16;;;;;;;6.20;5.60;;;;;;;12.46;100.00;99695.63;20961593;28;20486;-64
2021/05/18 22:01:18;;;;;;;5.47;5.03;;;;;;;12.36;100.00;99710.75;20912257;28;20231;-61
2021/05/18 22:31:44;;;;;;;5.57;4.93;;;;;;;12.15;100.00;99720.50;20902915;28;20219;-63
2021/05/18 22:41:45;;;;;;;4.90;4.30;;;;;;;12.08;100.00;99744.19;20902916;28;20595;-66
2021/05/18 22:51:45;;;;;;;4.77;4.27;;;;;;;11.99;100.00;99730.72;20900828;28;20345;-69
2021/05/18 23:01:46;;;;;;;4.13;3.73;;;;;;;11.85;100.00;99730.00;20900223;28;20223;-63
2021/05/18 23:11:46;;;;;;;3.83;3.53;;;;;;;11.72;100.00;99731.88;20899756;28;21155;-69
2021/05/18 23:21:47;;;;;;;3.80;3.50;;;;;;;11.34;100.00;99744.72;20900079;28;20721;-63
2021/05/18 23:31:48;;;;;;;3.80;3.50;;;;;;;11.04;100.00;99734.53;20931575;28;20219;-62
2021/05/18 23:41:48;;;;;;;4.60;4.20;;;;;;;10.89;100.00;99744.53;20898433;28;20223;-62
2021/05/18 23:51:49;;;;;;;3.83;3.40;;;;;;;10.87;100.00;99754.47;20897152;28;20250;-70
